Time;durP1;ratioP1;P1;durP2;ratioP2;P2;SDS_P1;SDS_P2;PMS_P1;PMS_P2;Temp;Humidity;BMP_temperature;BMP_pressure;BME280_temperature;BME280_humidity;BME280_pressure;Samples;Min_cycle;Max_cycle;Signal;HPM_P1;HPM_P2
2024/03/11 00:00:26;;;;;;;;;;;16.90;99.90;;;;;;10606526;27;19924;-59
2024/03/11 00:05:30;;;;;;;;;;;16.90;99.90;;;;;;10597418;27;20067;-59
2024/03/11 00:10:33;;;;;;;;;;;16.90;99.90;;;;;;10605129;27;19923;-60
2024/03/11 00:15:38;;;;;;;;;;;16.90;99.90;;;;;;10510865;28;19924;-59
2024/03/11 00:20:41;;;;;;;;;;;16.90;99.90;;;;;;10508221;28;19932;-58
2024/03/11 00:25:44;;;;;;;;;;;16.90;99.90;;;;;;10512748;28;20261;-58
2024/03/11 00:30:47;;;;;;;;;;;16.90;99.90;;;;;;10514810;28;19971;-59
2024/03/11 00:35:49;;;;;;;;;;;16.90;99.90;;;;;;10516794;28;19984;-59
2024/03/11 00:40:51;;;;;;;;;;;16.80;99.90;;;;;;10516427;28;20011;-59
2024/03/11 00:45:54;;;;;;;;;;;16.80;99.90;;;;;;10514946;28;19920;-60
2024/03/11 00:50:56;;;;;;;;;;;16.80;99.90;;;;;;10515000;28;20294;-58
2024/03/11 00:55:59;;;;;;;;;;;16.70;99.90;;;;;;10513836;28;20372;-58
2024/03/11 01:01:02;;;;;;;;;;;16.70;99.90;;;;;;10523491;28;20578;-58
2024/03/11 01:06:05;;;;;;;;;;;16.60;99.90;;;;;;10515686;28;19969;-59
2024/03/11 01:11:08;;;;;;;;;;;16.50;99.90;;;;;;10532071;27;20385;-56
2024/03/11 01:16:11;;;;;;;;;;;16.60;99.90;;;;;;10617055;27;19931;-58
2024/03/11 01:21:16;;;;;;;;;;;16.70;99.90;;;;;;10615838;27;20022;-58
2024/03/11 01:26:18;;;;;;;;;;;16.60;99.90;;;;;;10624797;27;19922;-59
2024/03/11 01:31:23;;;;;;;;;;;16.60;99.90;;;;;;10613275;27;19923;-59
2024/03/11 01:36:24;;;;;;;;;;;16.60;99.90;;;;;;10615427;27;19923;-57
2024/03/11 01:41:28;;;;;;;;;;;16.60;99.90;;;;;;10611792;27;20679;-60
2024/03/11 01:46:31;;;;;;;;;;;16.60;99.90;;;;;;10600533;27;19939;-59
2024/03/11 01:51:34;;;;;;;;;;;16.60;99.90;;;;;;10609489;27;19927;-59
2024/03/11 01:56:35;;;;;;;;;;;16.60;99.90;;;;;;10607135;27;19962;-59
2024/03/11 02:01:41;;;;;;;;;;;16.60;99.90;;;;;;10601176;27;20584;-59
2024/03/11 02:06:43;;;;;;;;;;;16.60;99.90;;;;;;10606753;27;19997;-57
2024/03/11 02:11:44;;;;;;;;;;;16.60;99.90;;;;;;10611231;27;19992;-59
2024/03/11 02:16:48;;;;;;;;;;;16.60;99.90;;;;;;10606723;27;20207;-58
2024/03/11 02:21:51;;;;;;;;;;;16.60;99.90;;;;;;10606714;27;19965;-59
2024/03/11 02:26:55;;;;;;;;;;;16.60;99.90;;;;;;10606892;27;19966;-58
2024/03/11 02:31:57;;;;;;;;;;;16.60;99.90;;;;;;10607575;27;20609;-58
2024/03/11 02:37:00;;;;;;;;;;;16.70;99.90;;;;;;10611797;27;19928;-59
2024/03/11 02:42:04;;;;;;;;;;;16.60;99.90;;;;;;10606817;27;19934;-60
2024/03/11 02:47:06;;;;;;;;;;;16.50;99.90;;;;;;10605188;27;20143;-58
2024/03/11 02:52:08;;;;;;;;;;;16.50;99.90;;;;;;10593602;27;19980;-58
2024/03/11 02:57:14;;;;;;;;;;;16.60;99.90;;;;;;10603428;27;19923;-59
2024/03/11 03:02:16;;;;;;;;;;;16.50;99.90;;;;;;10607443;27;20382;-59
2024/03/11 03:07:19;;;;;;;;;;;16.50;99.90;;;;;;10598189;27;19929;-59
2024/03/11 03:12:22;;;;;;;;;;;16.40;99.90;;;;;;10597291;27;20140;-60
2024/03/11 03:17:24;;;;;;;;;;;16.40;99.90;;;;;;10604239;27;19923;-57
2024/03/11 03:22:27;;;;;;;;;;;16.40;99.90;;;;;;10589038;27;19957;-57
2024/03/11 03:27:31;;;;;;;;;;;16.40;99.90;;;;;;10603407;27;20378;-58
2024/03/11 03:32:33;;;;;;;;;;;16.40;99.90;;;;;;10599284;27;19934;-58
2024/03/11 03:37:35;;;;;;;;;;;16.40;99.90;;;;;;10602950;27;19927;-61
2024/03/11 03:42:38;;;;;;;;;;;16.40;99.90;;;;;;10606081;27;19934;-60
2024/03/11 03:47:40;;;;;;;;;;;16.30;99.90;;;;;;10603340;27;19942;-58
2024/03/11 03:52:42;;;;;;;;;;;16.30;99.90;;;;;;10603442;27;21232;-59
2024/03/11 04:15:31;;;;;;;17.20;10.93;;;16.40;99.80;;;;;;10574124;27;20644;-59
2024/03/11 04:20:34;;;;;;;30.70;19.42;;;16.20;99.90;;;;;;10569584;28;20047;-59
2024/03/11 04:25:38;;;;;;;28.20;18.30;;;16.20;99.90;;;;;;10573579;28;20047;-59
2024/03/11 04:30:41;;;;;;;28.75;17.88;;;16.20;99.90;;;;;;10570588;28;20107;-58
2024/03/11 04:35:45;;;;;;;18.70;11.55;;;16.20;99.90;;;;;;10570088;27;20094;-59
2024/03/11 04:40:47;;;;;;;23.10;14.07;;;16.20;99.90;;;;;;10570157;28;20052;-58
2024/03/11 04:45:51;;;;;;;18.83;12.63;;;16.30;99.90;;;;;;10567528;27;20667;-58
2024/03/11 04:50:53;;;;;;;21.42;14.20;;;16.20;99.90;;;;;;10569423;28;20116;-59
2024/03/11 04:55:55;;;;;;;21.27;13.95;;;16.20;99.90;;;;;;10571462;27;20078;-59
2024/03/11 05:00:59;;;;;;;33.88;21.02;;;16.20;99.90;;;;;;10568122;28;20058;-59
2024/03/11 05:06:01;;;;;;;31.88;20.13;;;16.10;99.90;;;;;;10568727;28;20047;-58
2024/03/11 05:11:03;;;;;;;30.52;18.95;;;16.20;99.90;;;;;;10569186;28;20146;-59
2024/03/11 05:16:07;;;;;;;29.60;19.75;;;16.20;99.90;;;;;;10563020;28;20055;-59
2024/03/11 05:21:10;;;;;;;37.40;24.25;;;16.10;99.90;;;;;;10564200;27;20059;-58
2024/03/11 05:26:12;;;;;;;39.30;23.20;;;16.00;99.90;;;;;;10544720;28;20039;-59
2024/03/11 05:31:16;;;;;;;24.75;14.73;;;16.20;99.90;;;;;;10542209;28;20192;-59
2024/03/11 05:36:18;;;;;;;36.85;20.77;;;16.40;99.90;;;;;;10538786;28;20861;-58
2024/03/11 05:41:20;;;;;;;16.45;11.07;;;16.60;99.90;;;;;;10540022;28;20058;-59
2024/03/11 05:46:24;;;;;;;43.10;24.92;;;16.70;99.70;;;;;;10538952;27;20161;-59
2024/03/11 05:51:28;;;;;;;30.05;14.90;;;16.70;99.60;;;;;;10540015;27;20044;-59
2024/03/11 05:56:30;;;;;;;18.17;11.18;;;16.80;99.60;;;;;;10534384;27;20509;-58
2024/03/11 06:01:33;;;;;;;26.45;15.60;;;16.90;99.40;;;;;;10526490;27;20597;-59
2024/03/11 06:06:35;;;;;;;21.35;14.40;;;17.00;99.20;;;;;;10530871;27;20066;-59
2024/03/11 06:11:40;;;;;;;32.25;17.67;;;17.20;99.00;;;;;;10532172;27;20066;-58
2024/03/11 06:16:44;;;;;;;33.85;21.98;;;17.30;98.60;;;;;;10531938;27;20434;-60
2024/03/11 06:21:48;;;;;;;19.30;12.73;;;17.40;98.50;;;;;;10525462;27;20121;-57
2024/03/11 06:26:52;;;;;;;16.05;9.93;;;17.30;98.60;;;;;;10522133;28;20056;-57
2024/03/11 06:31:56;;;;;;;22.15;12.88;;;17.40;98.40;;;;;;10533493;28;20044;-56
2024/03/11 06:36:59;;;;;;;18.45;10.68;;;17.50;98.40;;;;;;10530998;28;20059;-60
2024/03/11 06:42:03;;;;;;;28.52;14.98;;;17.60;98.20;;;;;;10529041;28;20186;-60
2024/03/11 06:47:08;;;;;;;31.10;17.08;;;17.60;97.90;;;;;;10535245;27;20499;-61
2024/03/11 06:52:10;;;;;;;21.08;13.55;;;17.50;98.10;;;;;;10534626;27;20032;-59
2024/03/11 06:57:12;;;;;;;36.50;22.35;;;17.60;98.10;;;;;;10533506;28;20141;-58
2024/03/11 07:02:20;;;;;;;35.05;22.67;;;17.60;98.00;;;;;;10531831;28;20419;-59
2024/03/11 07:07:22;;;;;;;26.25;14.63;;;17.60;98.00;;;;;;10528783;28;20054;-58
2024/03/11 07:12:25;;;;;;;29.48;18.73;;;17.70;97.90;;;;;;10528829;27;20204;-59
2024/03/11 07:17:29;;;;;;;28.98;16.75;;;17.90;97.60;;;;;;10531597;27;20060;-58
2024/03/11 07:22:34;;;;;;;35.72;19.33;;;18.00;97.40;;;;;;10528705;28;20044;-60
2024/03/11 07:27:37;;;;;;;38.33;23.17;;;17.90;97.30;;;;;;10527602;28;20120;-59
2024/03/11 07:32:42;;;;;;;18.55;11.75;;;17.60;97.70;;;;;;10526237;28;20039;-58
2024/03/11 07:37:44;;;;;;;30.05;19.83;;;17.50;97.70;;;;;;10528588;28;20233;-59
2024/03/11 07:42:46;;;;;;;27.35;16.20;;;17.50;98.00;;;;;;10527204;28;20052;-59
2024/03/11 07:47:50;;;;;;;24.00;14.10;;;17.40;98.00;;;;;;10523473;28;20426;-60
2024/03/11 07:52:52;;;;;;;39.60;23.10;;;17.40;98.10;;;;;;10529315;27;20411;-60
2024/03/11 07:57:54;;;;;;;26.17;16.13;;;17.30;98.10;;;;;;10523102;28;20501;-59
2024/03/11 08:02:59;;;;;;;;;;;17.30;98.30;;;;;;10523119;28;20071;-60
2024/03/11 08:08:01;;;;;;;16.13;10.88;;;17.40;98.10;;;;;;10529983;28;19920;-58
2024/03/11 08:13:04;;;;;;;35.30;24.40;;;17.40;98.10;;;;;;10520925;28;20384;-59
2024/03/11 08:18:08;;;;;;;;;;;17.30;98.10;;;;;;10524088;28;20039;-59
2024/03/11 08:23:10;;;;;;;29.40;19.15;;;17.30;98.10;;;;;;10521354;28;19927;-59
2024/03/11 08:28:14;;;;;;;36.00;21.77;;;17.40;98.00;;;;;;10523898;28;20085;-59
2024/03/11 08:33:20;;;;;;;32.10;20.58;;;17.40;98.00;;;;;;10529933;28;20613;-59
2024/03/11 08:38:23;;;;;;;39.00;24.80;;;17.50;98.10;;;;;;10525014;28;20055;-58
2024/03/11 08:43:26;;;;;;;39.53;24.13;;;16.20;99.20;;;;;;10528512;28;20054;-57
2024/03/11 08:48:30;;;;;;;43.38;23.10;;;16.00;99.90;;;;;;10526425;28;20127;-57
2024/03/11 08:53:32;;;;;;;38.50;24.52;;;15.60;99.90;;;;;;10525868;28;20055;-58
2024/03/11 08:58:34;;;;;;;40.58;25.48;;;15.50;99.90;;;;;;10525972;28;20066;-60
2024/03/11 09:03:38;;;;;;;;;;;15.30;99.90;;;;;;10537247;28;21023;-59
2024/03/11 09:08:41;;;;;;;43.88;26.45;;;15.20;99.90;;;;;;10530504;27;19924;-58
2024/03/11 09:13:44;;;;;;;40.75;25.05;;;15.10;99.90;;;;;;10531187;27;20169;-59
2024/03/11 09:18:48;;;;;;;41.78;25.38;;;15.10;99.90;;;;;;10532601;28;20062;-59
2024/03/11 09:23:50;;;;;;;39.45;25.67;;;15.30;99.90;;;;;;10530071;28;20098;-57
2024/03/11 09:28:53;;;;;;;49.13;26.88;;;15.10;99.90;;;;;;10528747;28;20044;-59
2024/03/11 09:33:56;;;;;;;46.45;27.15;;;14.90;99.90;;;;;;10530171;27;20108;-58
2024/03/11 09:38:58;;;;;;;39.78;26.00;;;14.80;99.90;;;;;;10531798;28;20109;-60
2024/03/11 09:44:04;;;;;;;37.53;25.85;;;14.90;99.90;;;;;;10531700;27;20812;-58
2024/03/11 09:49:08;;;;;;;42.88;26.75;;;14.30;99.90;;;;;;10533618;27;20055;-59
2024/03/11 09:54:13;;;;;;;45.72;29.50;;;14.40;99.90;;;;;;10531176;28;20562;-60
2024/03/11 09:59:18;;;;;;;42.72;27.00;;;14.20;99.90;;;;;;10532876;28;20059;-60
2024/03/11 10:04:22;;;;;;;47.50;27.08;;;14.20;99.90;;;;;;10532968;28;20651;-58
2024/03/11 10:09:25;;;;;;;51.67;28.73;;;14.30;99.90;;;;;;10531705;28;20423;-58
2024/03/11 10:14:31;;;;;;;47.17;27.83;;;14.30;99.90;;;;;;10531154;28;20051;-59
2024/03/11 10:19:45;;;;;;;52.90;31.27;;;14.10;99.90;;;;;;10527093;28;20894;-60
2024/03/11 10:24:48;;;;;;;51.90;29.65;;;13.40;99.90;;;;;;10533910;28;20059;-59
2024/03/11 10:29:50;;;;;;;52.10;27.77;;;13.20;99.90;;;;;;10535007;28;20410;-60
2024/03/11 10:34:57;;;;;;;43.65;25.67;;;13.00;99.90;;;;;;10538770;28;20441;-57
2024/03/11 10:40:00;;;;;;;50.42;30.52;;;13.40;99.90;;;;;;10533059;28;20455;-60
2024/03/11 10:45:05;;;;;;;54.10;31.60;;;12.90;99.90;;;;;;10536666;28;20138;-59
2024/03/11 10:50:14;;;;;;;48.38;28.33;;;13.20;99.90;;;;;;10536371;27;20606;-58
2024/03/11 10:55:17;;;;;;;51.80;28.90;;;13.70;99.90;;;;;;10534358;28;20048;-57
2024/03/11 11:00:22;;;;;;;44.15;26.00;;;13.30;99.90;;;;;;10531532;28;20459;-59
2024/03/11 11:05:32;;;;;;;50.72;29.77;;;13.50;99.90;;;;;;10530305;28;20458;-56
2024/03/11 11:10:36;;;;;;;48.47;29.25;;;13.00;99.90;;;;;;10531698;28;20047;-57
2024/03/11 11:15:45;;;;;;;47.78;27.67;;;13.30;99.90;;;;;;10523741;28;20135;-58
2024/03/11 11:20:50;;;;;;;53.88;28.40;;;13.10;99.90;;;;;;10525256;27;20097;-59
2024/03/11 11:25:56;;;;;;;50.67;28.55;;;12.90;99.90;;;;;;10523837;28;20753;-57
2024/03/11 11:31:12;;;;;;;50.67;28.27;;;13.20;99.90;;;;;;10518883;28;20586;-59
2024/03/11 11:36:56;;;;;;;54.22;31.05;;;13.10;99.90;;;;;;10525796;28;20077;-59
2024/03/11 11:41:59;;;;;;;49.40;29.88;;;13.10;99.90;;;;;;10524650;28;20086;-59
2024/03/11 11:47:05;;;;;;;52.72;32.65;;;12.70;99.90;;;;;;10523627;28;20102;-58
2024/03/11 11:52:10;;;;;;;43.00;26.60;;;12.50;99.90;;;;;;10526663;28;20055;-62
2024/03/11 11:57:15;;;;;;;44.47;25.45;;;12.50;99.90;;;;;;10529545;28;20552;-59
2024/03/11 12:02:19;;;;;;;48.72;27.50;;;13.10;99.90;;;;;;10523452;28;20052;-57
2024/03/11 12:07:24;;;;;;;49.17;27.65;;;13.10;99.90;;;;;;10528083;27;20229;-58
2024/03/11 12:12:28;;;;;;;46.25;26.85;;;12.80;99.90;;;;;;10525814;28;20058;-58
2024/03/11 12:17:30;;;;;;;44.83;26.70;;;12.90;99.90;;;;;;10518157;28;20052;-58
2024/03/11 12:22:34;;;;;;;51.28;29.17;;;13.00;99.90;;;;;;10519673;28;20127;-58
2024/03/11 12:27:36;;;;;;;43.63;26.90;;;13.10;99.90;;;;;;10519673;28;21006;-56
2024/03/11 12:32:39;;;;;;;50.80;26.92;;;13.50;99.90;;;;;;10524237;28;20891;-59
2024/03/11 12:37:44;;;;;;;47.75;29.08;;;13.10;99.90;;;;;;10537197;28;20047;-58
2024/03/11 12:42:48;;;;;;;53.13;29.02;;;12.90;99.90;;;;;;10530117;28;20138;-58
2024/03/11 12:47:51;;;;;;;47.00;26.25;;;12.70;99.90;;;;;;10533405;28;20074;-57
2024/03/11 12:53:02;;;;;;;50.17;26.73;;;12.70;99.90;;;;;;10530559;27;20190;-59
2024/03/11 12:58:04;;;;;;;45.08;26.08;;;13.10;99.90;;;;;;10533846;28;20117;-58
2024/03/11 13:03:09;;;;;;;51.92;26.05;;;13.30;99.90;;;;;;10535896;28;20166;-59
2024/03/11 13:08:12;;;;;;;58.10;33.40;;;13.00;99.90;;;;;;10531395;27;20074;-59
2024/03/11 13:13:19;;;;;;;58.25;31.85;;;13.20;99.90;;;;;;10529936;27;20047;-58
2024/03/11 13:18:24;;;;;;;53.95;31.23;;;12.80;99.90;;;;;;10537956;28;20115;-60
2024/03/11 13:23:28;;;;;;;56.97;32.47;;;13.30;99.90;;;;;;10533372;28;20055;-59
2024/03/11 13:28:30;;;;;;;56.38;30.60;;;13.30;99.90;;;;;;10533600;27;20162;-58
2024/03/11 13:33:36;;;;;;;43.83;23.40;;;14.40;99.90;;;;;;10528320;27;20064;-60
2024/03/11 13:38:40;;;;;;;53.60;28.70;;;16.60;99.90;;;;;;10527880;27;20052;-59
2024/03/11 13:43:43;;;;;;;56.55;31.42;;;15.20;99.90;;;;;;10530613;28;20062;-59
2024/03/11 13:48:45;;;;;;;52.08;26.48;;;13.90;99.90;;;;;;10533994;27;20047;-58
2024/03/11 13:53:49;;;;;;;55.22;30.20;;;13.20;99.90;;;;;;10529353;28;20104;-59
2024/03/11 13:58:51;;;;;;;49.53;27.40;;;12.30;99.90;;;;;;10531921;28;20056;-58
2024/03/11 14:03:53;;;;;;;42.80;24.63;;;11.90;99.90;;;;;;10538533;28;20486;-57
2024/03/11 14:08:57;;;;;;;30.97;15.07;;;11.50;99.90;;;;;;10537764;28;20051;-59
2024/03/11 14:13:59;;;;;;;52.58;26.95;;;11.80;99.90;;;;;;10535880;28;20047;-56
2024/03/11 14:19:01;;;;;;;36.50;20.38;;;11.50;99.90;;;;;;10536351;28;20048;-58
2024/03/11 14:24:06;;;;;;;48.20;26.10;;;11.40;99.90;;;;;;10532088;28;20602;-56
2024/03/11 14:29:12;;;;;;;52.47;30.00;;;11.00;99.90;;;;;;10529540;28;20162;-57
2024/03/11 14:34:17;;;;;;;46.83;27.02;;;10.80;99.90;;;;;;10530385;28;20047;-58
2024/03/11 14:39:20;;;;;;;50.05;27.98;;;10.40;99.90;;;;;;10533679;28;20097;-58
2024/03/11 14:44:22;;;;;;;44.92;23.05;;;10.10;99.90;;;;;;10529195;28;20047;-56
2024/03/11 14:49:25;;;;;;;45.83;23.10;;;10.70;99.90;;;;;;10533300;27;20051;-58
2024/03/11 14:54:29;;;;;;;44.63;23.20;;;10.60;99.90;;;;;;10524574;28;20047;-60
2024/03/11 14:59:33;;;;;;;48.85;23.70;;;11.00;99.90;;;;;;10520949;28;21393;-60
2024/03/11 15:04:40;;;;;;;46.67;23.90;;;10.90;99.90;;;;;;10521594;28;20094;-56
2024/03/11 15:09:43;;;;;;;55.83;26.23;;;10.50;99.90;;;;;;10521847;28;20063;-60
2024/03/11 15:14:45;;;;;;;49.55;24.90;;;10.10;99.90;;;;;;10524896;27;20162;-58
2024/03/11 15:19:47;;;;;;;43.63;22.33;;;10.30;99.90;;;;;;10523245;28;20059;-57
2024/03/11 15:24:51;;;;;;;44.75;21.85;;;11.10;99.90;;;;;;10525800;28;20765;-55
2024/03/11 15:29:53;;;;;;;39.95;21.63;;;11.50;99.90;;;;;;10516856;28;20058;-58
2024/03/11 15:34:55;;;;;;;33.70;19.90;;;12.00;99.90;;;;;;10524721;27;20047;-60
2024/03/11 15:39:58;;;;;;;39.77;19.47;;;12.70;99.90;;;;;;10519676;28;20868;-59
2024/03/11 15:45:01;;;;;;;37.17;18.35;;;13.00;99.90;;;;;;10522688;28;20047;-60
2024/03/11 15:50:03;;;;;;;33.13;18.20;;;12.50;99.90;;;;;;10515564;28;20074;-59
2024/03/11 15:55:08;;;;;;;39.80;20.47;;;13.20;99.90;;;;;;10521252;28;20051;-59
2024/03/11 16:00:16;;;;;;;50.67;20.55;;;12.90;99.90;;;;;;10520143;28;20121;-60
2024/03/11 16:05:19;;;;;;;45.55;22.55;;;13.50;99.90;;;;;;10522176;28;20075;-59
2024/03/11 16:10:23;;;;;;;43.33;20.65;;;12.40;99.90;;;;;;10525906;28;20044;-59
2024/03/11 16:15:26;;;;;;;52.03;25.70;;;12.10;99.90;;;;;;10524816;28;20067;-60
2024/03/11 16:20:29;;;;;;;40.35;20.00;;;11.70;99.90;;;;;;10521343;28;20055;-59
2024/03/11 16:25:32;;;;;;;43.50;19.77;;;11.20;99.90;;;;;;10525222;28;20228;-60
2024/03/11 16:30:34;;;;;;;40.58;19.85;;;12.00;99.90;;;;;;10522205;28;20056;-58
2024/03/11 16:35:36;;;;;;;47.30;22.27;;;12.50;99.90;;;;;;10522859;28;20086;-59
2024/03/11 16:40:40;;;;;;;46.53;20.27;;;12.20;99.90;;;;;;10523104;28;20460;-61
2024/03/11 16:45:43;;;;;;;47.70;21.38;;;12.20;99.90;;;;;;10520004;28;20048;-59
2024/03/11 16:50:46;;;;;;;50.65;22.75;;;11.50;99.90;;;;;;10530204;28;20052;-61
2024/03/11 16:55:53;;;;;;;38.33;18.05;;;11.70;99.90;;;;;;10524070;28;20154;-60
2024/03/11 17:00:55;;;;;;;39.90;20.55;;;11.80;99.90;;;;;;10533884;28;20142;-60
2024/03/11 17:05:58;;;;;;;49.73;22.37;;;11.50;99.90;;;;;;10531716;28;21302;-59
2024/03/11 17:11:03;;;;;;;46.08;23.20;;;12.00;99.90;;;;;;10528612;28;20071;-58
2024/03/11 17:16:08;;;;;;;42.33;19.40;;;12.00;99.90;;;;;;10523683;28;20040;-58
2024/03/11 17:21:11;;;;;;;48.55;21.60;;;11.70;99.90;;;;;;10538140;28;20495;-60
2024/03/11 17:26:16;;;;;;;34.75;17.73;;;12.60;99.90;;;;;;10534604;28;20512;-56
2024/03/11 17:31:23;;;;;;;33.05;14.77;;;13.30;99.90;;;;;;10538890;28;20047;-60
2024/03/11 17:36:26;;;;;;;49.70;21.67;;;13.90;99.90;;;;;;10540836;27;20047;-60
2024/03/11 17:41:30;;;;;;;38.58;16.45;;;13.60;99.90;;;;;;10535153;28;20772;-59
2024/03/11 17:46:35;;;;;;;40.20;18.23;;;13.80;99.90;;;;;;10535737;27;20887;-57
2024/03/11 17:51:37;;;;;;;38.35;19.38;;;14.60;99.90;;;;;;10536590;28;20845;-59
2024/03/11 17:56:43;;;;;;;35.90;16.70;;;14.80;99.90;;;;;;10537046;28;20051;-59
2024/03/11 18:01:45;;;;;;;41.22;20.52;;;13.60;99.90;;;;;;10535133;28;20116;-61
2024/03/11 18:06:48;;;;;;;30.03;17.73;;;14.50;99.90;;;;;;10536602;28;20043;-59
2024/03/11 18:11:53;;;;;;;30.38;13.15;;;14.70;99.90;;;;;;10534249;28;20070;-54
2024/03/11 18:16:55;;;;;;;37.95;17.98;;;15.00;99.90;;;;;;10536206;27;20632;-57
2024/03/11 18:21:57;;;;;;;32.83;16.77;;;14.60;99.90;;;;;;10533102;28;20071;-56
2024/03/11 18:27:01;;;;;;;34.57;18.13;;;14.60;99.90;;;;;;10533796;28;20056;-58
2024/03/11 18:32:03;;;;;;;35.03;17.30;;;14.50;99.90;;;;;;10534106;28;20051;-58
2024/03/11 18:37:06;;;;;;;44.83;21.50;;;14.60;99.90;;;;;;10530635;28;20142;-58
2024/03/11 18:42:10;;;;;;;41.53;19.67;;;13.10;99.90;;;;;;10533480;28;20059;-58
2024/03/11 18:47:13;;;;;;;39.38;22.05;;;11.80;99.90;;;;;;10532975;27;20047;-53
2024/03/11 18:52:15;;;;;;;50.17;21.30;;;11.00;99.90;;;;;;10531314;27;20060;-56
2024/03/11 18:57:18;;;;;;;42.70;20.92;;;11.20;99.90;;;;;;10532431;28;20808;-58
2024/03/11 19:02:22;;;;;;;38.42;21.10;;;10.80;99.90;;;;;;10534806;28;20050;-56
2024/03/11 19:07:25;;;;;;;45.60;22.38;;;10.20;99.90;;;;;;10528078;28;20047;-55
2024/03/11 19:12:28;;;;;;;48.95;24.52;;;10.20;99.90;;;;;;10527688;27;20055;-56
2024/03/11 19:17:30;;;;;;;48.75;23.77;;;9.50;99.90;;;;;;10529558;27;20389;-57
2024/03/11 19:22:33;;;;;;;57.83;24.37;;;9.80;99.90;;;;;;10526433;27;20150;-57
2024/03/11 19:27:37;;;;;;;47.10;23.50;;;10.00;99.90;;;;;;10527266;27;20048;-55
2024/03/11 19:32:40;;;;;;;49.13;24.38;;;9.40;99.90;;;;;;10546033;27;20064;-58
2024/03/11 19:38:13;;;;;;;41.90;21.00;;;9.80;99.90;;;;;;10534202;28;20086;-58
2024/03/11 19:43:30;;;;;;;40.25;21.60;;;9.60;99.90;;;;;;10531529;28;20052;-58
2024/03/11 19:49:17;;;;;;;41.90;21.13;;;9.90;99.90;;;;;;10558029;27;20044;-56
2024/03/11 19:55:06;;;;;;;40.38;19.50;;;10.10;99.90;;;;;;10547019;28;20083;-56
2024/03/11 20:00:56;;;;;;;37.65;19.35;;;11.10;99.90;;;;;;10549505;28;20075;-57
2024/03/11 20:06:32;;;;;;;37.95;18.88;;;11.00;99.90;;;;;;10533839;28;20885;-57
2024/03/11 20:12:09;;;;;;;37.70;17.33;;;11.20;99.90;;;;;;10546474;28;20047;-57
2024/03/11 20:17:31;;;;;;;66.10;29.38;;;11.80;99.90;;;;;;10534873;28;20048;-56
2024/03/11 20:23:10;;;;;;;61.10;26.50;;;10.10;99.90;;;;;;10536502;28;20647;-57
2024/03/11 20:28:18;;;;;;;57.47;24.48;;;9.80;99.90;;;;;;10530778;28;20704;-59
2024/03/11 20:33:23;;;;;;;38.20;18.92;;;11.20;99.90;;;;;;10543806;28;20066;-58
2024/03/11 20:38:27;;;;;;;53.33;23.85;;;11.80;99.90;;;;;;10542056;28;20043;-58
2024/03/11 20:43:29;;;;;;;58.05;24.65;;;11.10;99.90;;;;;;10549307;28;20040;-57
2024/03/11 20:48:31;;;;;;;49.10;21.67;;;11.10;99.90;;;;;;10566686;28;20071;-56
2024/03/11 20:53:34;;;;;;;56.67;21.20;;;11.90;99.90;;;;;;10554897;28;20097;-59
2024/03/11 20:58:36;;;;;;;57.58;21.80;;;11.30;99.90;;;;;;10568145;28;20059;-58
2024/03/11 21:03:38;;;;;;;49.60;22.23;;;11.60;99.90;;;;;;10566561;28;20047;-57
2024/03/11 21:08:43;;;;;;;51.17;19.07;;;12.10;99.90;;;;;;10565128;28;20051;-56
2024/03/11 21:13:46;;;;;;;70.72;25.05;;;11.40;99.90;;;;;;10571215;28;20383;-56
2024/03/11 21:18:57;;;;;;;65.75;22.85;;;11.50;99.90;;;;;;10564980;28;20052;-59
2024/03/11 21:24:18;;;;;;;62.72;22.50;;;11.10;99.90;;;;;;10560707;28;20047;-56
2024/03/11 21:29:20;;;;;;;34.40;12.75;;;10.70;99.90;;;;;;10552771;28;20052;-54
2024/03/11 21:34:22;;;;;;;55.93;20.00;;;9.90;99.90;;;;;;10547689;28;20052;-56
2024/03/11 21:39:26;;;;;;;40.47;17.33;;;10.50;99.90;;;;;;10569133;28;20059;-56
2024/03/11 21:44:28;;;;;;;48.80;20.42;;;11.10;99.90;;;;;;10575845;27;20051;-55
2024/03/11 21:49:31;;;;;;;51.30;21.27;;;11.10;99.90;;;;;;10555900;28;20051;-56
2024/03/11 21:54:35;;;;;;;;;;;11.70;99.90;;;;;;10560049;28;20052;-55
2024/03/11 21:59:39;;;;;;;50.42;19.23;;;12.20;99.90;;;;;;10571597;27;19924;-53
2024/03/11 22:04:41;;;;;;;51.53;22.63;;;11.70;99.90;;;;;;10560981;28;20594;-57
2024/03/11 22:09:45;;;;;;;49.77;20.10;;;11.30;99.90;;;;;;10562830;28;20139;-55
2024/03/11 22:14:47;;;;;;;46.33;18.80;;;11.00;99.90;;;;;;10561127;28;20056;-55
2024/03/11 22:19:49;;;;;;;36.37;14.87;;;11.20;99.90;;;;;;10559507;28;20060;-56
2024/03/11 22:24:53;;;;;;;56.03;23.80;;;12.00;99.90;;;;;;10543428;28;20071;-54
2024/03/11 22:29:55;;;;;;;65.70;22.30;;;10.70;99.90;;;;;;10569488;28;20058;-56
2024/03/11 22:34:57;;;;;;;46.90;18.13;;;10.10;99.90;;;;;;10550285;28;20076;-55
2024/03/11 22:40:00;;;;;;;61.88;19.60;;;10.50;99.90;;;;;;10546539;28;20052;-56
2024/03/11 22:45:02;;;;;;;45.90;17.10;;;10.90;99.90;;;;;;10565450;27;20039;-54
2024/03/11 22:50:05;;;;;;;61.20;21.27;;;10.40;99.90;;;;;;10562242;28;20142;-56
2024/03/11 22:55:11;;;;;;;61.33;22.00;;;10.50;99.90;;;;;;10564632;27;20548;-55
2024/03/11 23:05:33;;;;;;;39.15;16.80;;;10.30;99.90;;;;;;10548231;28;20046;-55
2024/03/11 23:10:39;;;;;;;52.40;18.30;;;10.00;99.90;;;;;;10549412;28;20044;-57
2024/03/11 23:15:41;;;;;;;47.67;18.90;;;10.00;99.90;;;;;;10540401;28;20044;-56
2024/03/11 23:20:45;;;;;;;36.25;15.57;;;10.20;99.90;;;;;;10538314;28;20054;-56
2024/03/11 23:25:49;;;;;;;54.50;19.60;;;10.40;99.90;;;;;;10539283;28;20040;-56
2024/03/11 23:30:54;;;;;;;71.57;24.15;;;10.10;99.90;;;;;;10545733;28;20048;-55
2024/03/11 23:35:56;;;;;;;58.10;20.25;;;9.90;99.90;;;;;;10545935;28;20044;-53
2024/03/11 23:41:01;;;;;;;48.13;21.10;;;9.60;99.90;;;;;;10552881;28;20052;-53
2024/03/11 23:46:03;;;;;;;35.30;13.45;;;9.30;99.90;;;;;;10557942;27;20044;-53
2024/03/11 23:51:06;;;;;;;45.13;16.57;;;9.60;99.90;;;;;;10563321;28;20396;-54
2024/03/11 23:56:10;;;;;;;42.50;13.63;;;8.90;99.90;;;;;;10570713;28;20461;-54
